createdAt,value
2018-08-18T00:00:34.771Z,98409.86
2018-08-18T00:03:04.803Z,98405.78
2018-08-18T00:05:34.668Z,98407.93
2018-08-18T00:08:04.786Z,98411.11
2018-08-18T00:10:34.427Z,98403.95
2018-08-18T00:13:04.371Z,98410.77
2018-08-18T00:15:33.969Z,98428.41
2018-08-18T00:18:03.716Z,98428.23
2018-08-18T00:20:33.715Z,98432.74
2018-08-18T00:23:03.321Z,98439.88
2018-08-18T00:25:33.477Z,98442.02
2018-08-18T00:28:21.767Z,98445.66
2018-08-18T00:30:51.294Z,98446.83
2018-08-18T00:33:21.774Z,98442.66
2018-08-18T00:35:51.594Z,98444.16
2018-08-18T00:38:22.551Z,98442.02
2018-08-18T00:40:52.219Z,98451.64
2018-08-18T00:43:22.130Z,98447.98
2018-08-18T00:45:51.779Z,98444.00
2018-08-18T00:48:21.963Z,98442.66
2018-08-18T00:50:51.650Z,98449.83
2018-08-18T00:53:21.276Z,98450.00
2018-08-18T00:55:50.996Z,98467.30
2018-08-18T00:58:25.716Z,98470.30
2018-08-18T01:01:00.533Z,98481.12
2018-08-18T01:03:30.715Z,98476.63
2018-08-18T01:06:18.230Z,98473.31
2018-08-18T01:08:48.762Z,98477.98
2018-08-18T01:11:18.466Z,98483.96
2018-08-18T01:13:48.398Z,98476.02
2018-08-18T01:16:18.288Z,98480.82
2018-08-18T01:18:48.747Z,98489.31
2018-08-18T01:21:18.738Z,98489.66
2018-08-18T01:23:48.527Z,98491.16
2018-08-18T01:26:18.512Z,98488.66
2018-08-18T01:28:49.272Z,98500.80
2018-08-18T01:31:24.578Z,98503.31
2018-08-18T01:33:54.218Z,98507.81
2018-08-18T01:36:23.839Z,98504.16
2018-08-18T01:38:53.731Z,98506.98
2018-08-18T01:41:25.687Z,98506.98
2018-08-18T01:44:17.148Z,98500.36
2018-08-18T01:46:49.426Z,98500.53
2018-08-18T01:49:38.690Z,98501.34
2018-08-18T01:52:26.332Z,98499.18
2018-08-18T01:54:55.912Z,98497.52
2018-08-18T01:57:25.615Z,98499.36
2018-08-18T01:59:55.306Z,98497.86
2018-08-18T02:02:26.422Z,98505.35
2018-08-18T02:05:03.503Z,98505.66
2018-08-18T02:07:34.268Z,98504.84
2018-08-18T02:10:05.043Z,98506.99
2018-08-18T02:12:34.624Z,98502.86
2018-08-18T02:15:04.564Z,98505.66
2018-08-18T02:17:37.255Z,98507.48
2018-08-18T02:20:09.327Z,98501.83
2018-08-18T02:22:38.992Z,98506.49
2018-08-18T02:25:08.583Z,98506.49
2018-08-18T02:27:38.959Z,98498.52
2018-08-18T02:30:20.317Z,98500.02
2018-08-18T02:32:50.226Z,98501.50
2018-08-18T02:35:20.191Z,98504.31
2018-08-18T02:37:49.838Z,98505.65
2018-08-18T02:40:19.648Z,98500.84
2018-08-18T02:42:49.396Z,98498.52
2018-08-18T02:45:19.556Z,98500.34
2018-08-18T02:47:53.666Z,98498.65
2018-08-18T02:50:23.295Z,98501.00
2018-08-18T02:52:52.907Z,98490.37
2018-08-18T02:55:22.605Z,98498.67
2018-08-18T02:57:52.290Z,98497.67
2018-08-18T03:00:26.957Z,98499.00
2018-08-18T03:02:56.754Z,98500.48
2018-08-18T03:05:26.389Z,98504.64
2018-08-18T03:07:56.291Z,98508.30
2018-08-18T03:10:27.163Z,98507.60
2018-08-18T03:12:59.227Z,98511.27
2018-08-18T03:16:02.832Z,98516.73
2018-08-18T03:18:54.020Z,98521.04
2018-08-18T03:21:31.658Z,98524.19
2018-08-18T03:24:22.524Z,98524.00
2018-08-18T03:26:54.422Z,98524.83
2018-08-18T03:29:25.110Z,98529.80
2018-08-18T03:31:55.122Z,98533.28
2018-08-18T03:34:25.002Z,98532.63
2018-08-18T03:36:56.754Z,98531.93
2018-08-18T03:39:31.363Z,98536.58
2018-08-18T03:42:02.179Z,98539.05
2018-08-18T03:44:31.771Z,98547.97
2018-08-18T03:47:01.564Z,98547.66
2018-08-18T03:49:31.232Z,98542.29
2018-08-18T03:52:00.884Z,98551.23
2018-08-18T03:54:30.580Z,98545.90
2018-08-18T03:57:00.296Z,98552.84
2018-08-18T03:59:30.096Z,98559.48
2018-08-18T04:02:01.590Z,98565.27
2018-08-18T04:04:34.575Z,98565.42
2018-08-18T04:07:06.374Z,98569.02
2018-08-18T04:09:37.077Z,98574.52
2018-08-18T04:12:08.288Z,98576.79
2018-08-18T04:14:43.179Z,98576.59
2018-08-18T04:17:29.407Z,98581.55
2018-08-18T04:19:59.115Z,98574.53
2018-08-18T04:22:29.100Z,98578.81
2018-08-18T04:24:59.167Z,98573.16
2018-08-18T04:27:47.102Z,98573.63
2018-08-18T04:30:20.873Z,98579.34
2018-08-18T04:32:54.735Z,98578.95
2018-08-18T04:35:25.435Z,98585.11
2018-08-18T04:37:55.861Z,98588.73
2018-08-18T04:40:26.103Z,98592.52
2018-08-18T04:42:59.554Z,98596.80
2018-08-18T04:45:29.196Z,98606.54
2018-08-18T04:47:58.870Z,98604.89
2018-08-18T04:50:29.046Z,98606.54
2018-08-18T04:52:58.795Z,98599.09
2018-08-18T04:55:28.418Z,98595.94
2018-08-18T04:57:58.448Z,98605.91
2018-08-18T05:00:28.941Z,98598.78
2018-08-18T05:03:00.263Z,98597.45
2018-08-18T05:05:31.215Z,98592.00
2018-08-18T05:08:02.138Z,98600.78
2018-08-18T05:10:32.291Z,98602.26
2018-08-18T05:13:01.963Z,98596.79
2018-08-18T05:15:31.615Z,98602.41
2018-08-18T05:18:01.224Z,98605.30
2018-08-18T05:20:30.934Z,98610.14
2018-08-18T05:23:19.275Z,98611.02
2018-08-18T05:25:50.538Z,98612.34
2018-08-18T05:28:20.482Z,98609.19
2018-08-18T05:30:53.295Z,98614.05
2018-08-18T05:33:22.931Z,98616.30
2018-08-18T05:35:52.748Z,98614.00
2018-08-18T05:38:23.087Z,98608.73
2018-08-18T05:40:52.739Z,98617.75
2018-08-18T05:43:22.546Z,98611.63
2018-08-18T05:45:52.315Z,98616.50
2018-08-18T05:48:21.987Z,98613.38
2018-08-18T05:50:51.607Z,98620.75
2018-08-18T05:53:26.368Z,98617.78
2018-08-18T05:55:56.659Z,98617.47
2018-08-18T05:58:26.272Z,98617.84
2018-08-18T06:01:01.173Z,98619.80
2018-08-18T06:03:31.023Z,98625.34
2018-08-18T06:06:00.630Z,98623.75
2018-08-18T06:08:30.314Z,98625.73
2018-08-18T06:11:00.028Z,98624.94
2018-08-18T06:13:29.731Z,98624.66
2018-08-18T06:16:10.804Z,98631.28
2018-08-18T06:18:41.514Z,98637.95
2018-08-18T06:21:11.287Z,98643.11
2018-08-18T06:23:40.858Z,98647.75
2018-08-18T06:26:10.474Z,98644.64
2018-08-18T06:28:40.267Z,98652.47
2018-08-18T06:31:09.970Z,98646.16
2018-08-18T06:33:39.692Z,98649.98
2018-08-18T06:36:09.330Z,98652.34
2018-08-18T06:38:39.533Z,98655.48
2018-08-18T06:41:09.471Z,98644.34
2018-08-18T06:43:39.330Z,98657.17
2018-08-18T06:46:08.981Z,98655.04
2018-08-18T06:48:39.418Z,98658.70
2018-08-18T06:51:09.326Z,98659.23
2018-08-18T06:53:45.439Z,98658.09
2018-08-18T06:56:15.170Z,98658.92
2018-08-18T06:58:45.098Z,98650.78
2018-08-18T07:01:14.916Z,98655.28
2018-08-18T07:03:46.275Z,98658.61
2018-08-18T07:06:17.351Z,98655.12
2018-08-18T07:08:53.088Z,98653.60
2018-08-18T07:11:23.033Z,98661.28
2018-08-18T07:13:52.943Z,98661.30
2018-08-18T07:16:22.571Z,98663.42
2018-08-18T07:18:52.159Z,98663.28
2018-08-18T07:21:21.817Z,98659.91
2018-08-18T07:23:51.417Z,98670.99
2018-08-18T07:26:21.015Z,98662.75
2018-08-18T07:28:50.727Z,98669.88
2018-08-18T07:31:20.446Z,98668.16
2018-08-18T07:33:50.132Z,98667.17
2018-08-18T07:36:19.862Z,98666.17
2018-08-18T07:38:49.432Z,98673.69
2018-08-18T07:41:20.091Z,98673.03
2018-08-18T07:43:49.792Z,98669.89
2018-08-18T07:46:19.600Z,98673.54
2018-08-18T07:48:49.292Z,98678.02
2018-08-18T07:51:19.026Z,98684.14
2018-08-18T07:53:48.724Z,98686.77
2018-08-18T07:56:18.324Z,98689.06
2018-08-18T07:58:47.952Z,98685.08
2018-08-18T08:01:17.638Z,98686.91
2018-08-18T08:03:47.575Z,98691.36
2018-08-18T08:06:17.150Z,98688.41
2018-08-18T08:08:48.608Z,98694.27
2018-08-18T08:11:18.527Z,98699.02
2018-08-18T08:13:48.250Z,98705.77
2018-08-18T08:16:18.633Z,98702.42
2018-08-18T08:18:48.196Z,98707.62
2018-08-18T08:21:18.008Z,98705.95
2018-08-18T08:23:47.798Z,98705.47
2018-08-18T08:26:17.424Z,98706.87
2018-08-18T08:28:47.122Z,98703.59
2018-08-18T08:31:16.832Z,98697.46
2018-08-18T08:33:46.715Z,98701.12
2018-08-18T08:36:17.566Z,98704.33
2018-08-18T08:38:59.183Z,98693.95
2018-08-18T08:41:31.089Z,98696.67
2018-08-18T08:44:01.303Z,98702.46
2018-08-18T08:46:31.065Z,98695.11
2018-08-18T08:49:01.888Z,98696.77
2018-08-18T08:51:31.998Z,98699.28
2018-08-18T08:54:01.639Z,98699.97
2018-08-18T08:56:40.346Z,98698.97
2018-08-18T08:59:10.146Z,98694.32
2018-08-18T09:01:39.867Z,98695.43
2018-08-18T09:04:09.575Z,98690.66
2018-08-18T09:06:43.407Z,98689.43
2018-08-18T09:09:13.295Z,98686.38
2018-08-18T09:11:43.172Z,98684.41
2018-08-18T09:14:12.878Z,98686.59
2018-08-18T09:16:42.634Z,98683.84
2018-08-18T09:19:12.429Z,98682.11
2018-08-18T09:21:47.298Z,98682.03
2018-08-18T09:24:17.566Z,98678.95
2018-08-18T09:26:54.071Z,98680.74
2018-08-18T09:29:24.504Z,98674.52
2018-08-18T09:31:54.734Z,98680.91
2018-08-18T09:34:24.291Z,98677.00
2018-08-18T09:36:54.539Z,98677.73
2018-08-18T09:39:33.923Z,98680.17
2018-08-18T09:42:09.933Z,98677.48
2018-08-18T09:44:44.846Z,98676.75
2018-08-18T09:47:15.580Z,98674.80
2018-08-18T09:49:45.512Z,98674.31
2018-08-18T09:52:17.340Z,98672.44
2018-08-18T09:54:47.018Z,98672.31
2018-08-18T09:57:16.804Z,98678.12
2018-08-18T09:59:46.484Z,98670.38
2018-08-18T10:02:16.535Z,98665.83
2018-08-18T10:04:46.195Z,98671.31
2018-08-18T10:07:16.041Z,98664.25
2018-08-18T10:09:45.732Z,98664.49
2018-08-18T10:12:15.668Z,98662.73
2018-08-18T10:14:45.655Z,98656.75
2018-08-18T10:17:15.360Z,98663.97
2018-08-18T10:19:45.285Z,98661.94
2018-08-18T10:22:14.995Z,98662.17
2018-08-18T10:24:44.527Z,98659.75
2018-08-18T10:27:14.213Z,98659.61
2018-08-18T10:29:44.151Z,98661.19
2018-08-18T10:32:13.754Z,98662.23
2018-08-18T10:34:43.563Z,98657.58
2018-08-18T10:37:14.407Z,98656.42
2018-08-18T10:39:44.085Z,98648.81
2018-08-18T10:42:15.799Z,98651.69
2018-08-18T10:44:51.578Z,98652.72
2018-08-18T10:47:22.779Z,98644.25
2018-08-18T10:50:09.740Z,98642.14
2018-08-18T10:52:58.396Z,98642.57
2018-08-18T10:55:28.023Z,98638.31
2018-08-18T10:58:05.440Z,98644.13
2018-08-18T11:00:35.669Z,98641.60
2018-08-18T11:03:07.080Z,98641.36
2018-08-18T11:05:36.773Z,98636.80
2018-08-18T11:08:07.965Z,98644.56
2018-08-18T11:10:40.706Z,98640.98
2018-08-18T11:13:10.690Z,98641.27
2018-08-18T11:15:40.848Z,98639.10
2018-08-18T11:18:10.556Z,98637.33
2018-08-18T11:20:40.268Z,98638.28
2018-08-18T11:23:13.710Z,98640.44
2018-08-18T11:25:53.059Z,98639.91
2018-08-18T11:28:23.506Z,98633.72
2018-08-18T11:30:54.530Z,98630.60
2018-08-18T11:33:39.482Z,98635.84
2018-08-18T11:36:10.306Z,98637.27
2018-08-18T11:38:40.279Z,98630.11
2018-08-18T11:41:09.976Z,98627.28
2018-08-18T11:43:47.271Z,98628.94
2018-08-18T11:46:17.143Z,98631.28
2018-08-18T11:48:46.761Z,98622.78
2018-08-18T11:51:16.612Z,98621.00
2018-08-18T11:53:59.536Z,98614.31
2018-08-18T11:56:29.362Z,98621.86
2018-08-18T11:59:20.587Z,98614.45
2018-08-18T12:01:52.035Z,98613.98
2018-08-18T12:04:23.582Z,98614.59
2018-08-18T12:06:57.719Z,98610.52
2018-08-18T12:09:28.135Z,98613.14
2018-08-18T12:11:58.070Z,98611.05
2018-08-18T12:14:27.966Z,98604.33
2018-08-18T12:16:57.595Z,98605.84
2018-08-18T12:19:27.241Z,98612.83
2018-08-18T12:21:56.940Z,98597.28
2018-08-18T12:24:26.862Z,98602.77
2018-08-18T12:27:11.068Z,98598.09
2018-08-18T12:29:40.752Z,98595.02
2018-08-18T12:32:16.130Z,98603.58
2018-08-18T12:34:46.027Z,98598.55
2018-08-18T12:37:26.559Z,98601.42
2018-08-18T12:39:58.343Z,98594.91
2018-08-18T12:42:29.042Z,98591.36
2018-08-18T12:44:58.747Z,98592.17
2018-08-18T12:47:28.439Z,98587.00
2018-08-18T12:49:58.194Z,98583.95
2018-08-18T12:52:28.991Z,98588.16
2018-08-18T12:54:58.599Z,98590.14
2018-08-18T12:57:40.822Z,98589.66
2018-08-18T13:00:10.528Z,98581.19
2018-08-18T13:02:47.387Z,98583.35
2018-08-18T13:05:17.843Z,98580.23
2018-08-18T13:07:47.991Z,98573.50
2018-08-18T13:10:27.322Z,98575.13
2018-08-18T13:12:57.920Z,98565.91
2018-08-18T13:15:28.019Z,98567.64
2018-08-18T13:17:57.627Z,98566.40
2018-08-18T13:20:27.763Z,98563.08
2018-08-18T13:22:57.519Z,98556.78
2018-08-18T13:25:27.480Z,98556.17
2018-08-18T13:27:57.646Z,98552.73
2018-08-18T13:30:28.800Z,98552.51
2018-08-18T13:32:59.716Z,98549.59
2018-08-18T13:35:29.388Z,98543.37
2018-08-18T13:37:59.047Z,98548.42
2018-08-18T13:40:29.573Z,98544.38
2018-08-18T13:42:59.607Z,98539.21
2018-08-18T13:45:41.764Z,98533.39
2018-08-18T13:48:13.061Z,98532.70
2018-08-18T13:50:42.842Z,98535.28
2018-08-18T13:53:12.491Z,98538.52
2018-08-18T13:55:42.631Z,98538.08
2018-08-18T13:58:13.402Z,98531.34
2018-08-18T14:00:42.903Z,98537.77
2018-08-18T14:03:25.678Z,98532.74
2018-08-18T14:05:56.122Z,98530.17
2018-08-18T14:08:26.504Z,98525.09
2018-08-18T14:10:56.276Z,98524.73
2018-08-18T14:13:26.258Z,98521.34
2018-08-18T14:15:58.979Z,98517.84
2018-08-18T14:18:28.743Z,98515.14
2018-08-18T14:21:07.766Z,98514.33
2018-08-18T14:23:37.463Z,98509.16
2018-08-18T14:26:07.289Z,98513.48
2018-08-18T14:28:37.099Z,98513.27
2018-08-18T14:31:07.219Z,98510.57
2018-08-18T14:33:36.811Z,98510.29
2018-08-18T14:36:14.022Z,98511.53
2018-08-18T14:38:45.413Z,98503.79
2018-08-18T14:41:51.028Z,98509.87
2018-08-18T14:44:20.708Z,98510.08
2018-08-18T14:46:50.468Z,98502.49
2018-08-18T14:49:20.331Z,98503.58
2018-08-18T14:51:50.132Z,98503.36
2018-08-18T14:54:24.091Z,98503.89
2018-08-18T14:56:53.927Z,98507.71
2018-08-18T14:59:27.652Z,98507.28
2018-08-18T15:01:57.372Z,98505.55
2018-08-18T15:04:27.175Z,98507.71
2018-08-18T15:06:56.973Z,98505.77
2018-08-18T15:09:35.487Z,98498.66
2018-08-18T15:12:05.224Z,98500.12
2018-08-18T15:14:34.846Z,98507.59
2018-08-18T15:17:04.587Z,98496.02
2018-08-18T15:19:34.183Z,98501.73
2018-08-18T15:22:13.338Z,98499.67
2018-08-18T15:24:42.876Z,98498.97
2018-08-18T15:27:12.590Z,98501.14
2018-08-18T15:29:42.414Z,98501.05
2018-08-18T15:32:12.091Z,98498.25
2018-08-18T15:34:41.812Z,98500.34
2018-08-18T15:37:11.868Z,98495.85
2018-08-18T15:39:41.521Z,98500.73
2018-08-18T15:42:11.145Z,98504.34
2018-08-18T15:44:57.249Z,98500.59
2018-08-18T15:47:29.171Z,98498.86
2018-08-18T15:49:59.440Z,98500.20
2018-08-18T15:52:33.796Z,98501.66
2018-08-18T15:55:04.644Z,98501.66
2018-08-18T15:57:34.575Z,98504.88
2018-08-18T16:00:04.395Z,98500.66
2018-08-18T16:02:34.033Z,98504.80
2018-08-18T16:05:03.612Z,98499.14
2018-08-18T16:07:33.423Z,98501.19
2018-08-18T16:10:03.018Z,98494.47
2018-08-18T16:12:32.656Z,98501.55
2018-08-18T16:15:02.357Z,98498.14
2018-08-18T16:17:32.055Z,98500.19
2018-08-18T16:20:02.016Z,98501.32
2018-08-18T16:22:31.859Z,98497.00
2018-08-18T16:25:01.699Z,98492.05
2018-08-18T16:27:31.352Z,98495.47
2018-08-18T16:30:01.110Z,98493.41
2018-08-18T16:32:30.815Z,98493.83
2018-08-18T16:35:05.663Z,98482.75
2018-08-18T16:37:37.749Z,98488.55
2018-08-18T16:40:07.338Z,98482.17
2018-08-18T16:42:37.066Z,98483.72
2018-08-18T16:45:07.376Z,98477.74
2018-08-18T16:47:41.351Z,98476.61
2018-08-18T16:50:11.170Z,98473.81
2018-08-18T16:52:40.880Z,98482.41
2018-08-18T16:55:10.455Z,98480.34
2018-08-18T16:57:39.981Z,98478.88
2018-08-18T17:00:09.616Z,98480.84
2018-08-18T17:02:39.715Z,98482.19
2018-08-18T17:05:10.111Z,98486.75
2018-08-18T17:07:43.455Z,98483.22
2018-08-18T17:10:13.496Z,98482.72
2018-08-18T17:12:43.055Z,98485.07
2018-08-18T17:15:12.688Z,98486.09
2018-08-18T17:17:42.423Z,98490.75
2018-08-18T17:20:12.087Z,98493.53
2018-08-18T17:22:42.318Z,98497.56
2018-08-18T17:25:11.957Z,98498.79
2018-08-18T17:27:41.514Z,98499.72
2018-08-18T17:30:11.167Z,98504.69
2018-08-18T17:32:40.947Z,98504.98
2018-08-18T17:35:10.642Z,98505.19
2018-08-18T17:37:40.582Z,98509.09
2018-08-18T17:40:10.318Z,98509.21
2018-08-18T17:42:40.306Z,98511.45
2018-08-18T17:45:10.207Z,98516.05
2018-08-18T17:47:44.182Z,98516.25
2018-08-18T17:50:13.847Z,98511.08
2018-08-18T17:52:43.583Z,98514.05
2018-08-18T17:55:19.608Z,98519.20
2018-08-18T17:57:49.314Z,98520.33
2018-08-18T18:00:20.755Z,98517.20
2018-08-18T18:02:57.909Z,98521.82
2018-08-18T18:05:34.353Z,98529.66
2018-08-18T18:08:06.559Z,98530.84
2018-08-18T18:10:38.134Z,98534.30
2018-08-18T18:13:16.440Z,98536.75
2018-08-18T18:15:47.682Z,98537.55
2018-08-18T18:18:19.831Z,98545.56
2018-08-18T18:20:50.830Z,98544.19
2018-08-18T18:23:21.247Z,98544.13
2018-08-18T18:25:52.734Z,98542.89
2018-08-18T18:28:22.370Z,98548.19
2018-08-18T18:30:53.493Z,98549.49
2018-08-18T18:33:23.316Z,98546.06
2018-08-18T18:35:52.972Z,98557.36
2018-08-18T18:38:23.057Z,98557.81
2018-08-18T18:40:52.768Z,98560.73
2018-08-18T18:43:22.372Z,98567.20
2018-08-18T18:45:53.377Z,98567.45
2018-08-18T18:48:23.300Z,98577.73
2018-08-18T18:50:53.097Z,98572.10
2018-08-18T18:53:22.718Z,98577.21
2018-08-18T18:55:54.332Z,98573.67
2018-08-18T18:58:24.585Z,98576.45
2018-08-18T19:01:00.606Z,98582.45
2018-08-18T19:03:30.863Z,98585.53
2018-08-18T19:06:00.548Z,98594.65
2018-08-18T19:08:30.516Z,98591.06
2018-08-18T19:11:02.800Z,98599.84
2018-08-18T19:13:32.501Z,98596.28
2018-08-18T19:16:02.177Z,98606.69
2018-08-18T19:18:32.100Z,98605.80
2018-08-18T19:21:01.968Z,98616.73
2018-08-18T19:23:33.564Z,98612.83
2018-08-18T19:26:03.350Z,98620.59
2018-08-18T19:28:33.234Z,98619.48
2018-08-18T19:31:03.043Z,98621.89
2018-08-18T19:33:32.598Z,98623.14
2018-08-18T19:36:02.128Z,98626.92
2018-08-18T19:38:31.690Z,98629.02
2018-08-18T19:41:01.220Z,98637.85
2018-08-18T19:43:30.959Z,98634.48
2018-08-18T19:46:00.487Z,98629.84
2018-08-18T19:48:30.031Z,98632.76
2018-08-18T19:51:03.790Z,98639.12
2018-08-18T19:53:35.702Z,98631.64
2018-08-18T19:56:09.912Z,98635.53
2018-08-18T19:58:39.493Z,98643.05
2018-08-18T20:01:09.055Z,98636.27
2018-08-18T20:03:38.740Z,98643.31
2018-08-18T20:06:26.711Z,98647.20
2018-08-18T20:08:56.319Z,98652.96
2018-08-18T20:11:25.835Z,98651.00
2018-08-18T20:13:55.405Z,98652.67
2018-08-18T20:16:25.043Z,98654.22
2018-08-18T20:18:54.616Z,98649.41
2018-08-18T20:21:24.516Z,98651.27
2018-08-18T20:23:54.051Z,98658.63
2018-08-18T20:26:23.587Z,98662.69
2018-08-18T20:28:53.158Z,98666.35
2018-08-18T20:31:22.675Z,98664.38
2018-08-18T20:33:52.204Z,98657.94
2018-08-18T20:36:21.776Z,98659.13
2018-08-18T20:38:51.314Z,98664.50
2018-08-18T20:41:20.899Z,98660.13
2018-08-18T20:43:50.664Z,98660.00
2018-08-18T20:46:20.238Z,98662.66
2018-08-18T20:48:49.854Z,98673.15
2018-08-18T20:51:23.569Z,98670.34
2018-08-18T20:53:53.080Z,98669.36
2018-08-18T20:56:22.646Z,98671.20
2018-08-18T20:58:52.204Z,98672.52
2018-08-18T21:01:21.800Z,98679.69
2018-08-18T21:03:51.682Z,98682.38
2018-08-18T21:06:21.475Z,98680.06
2018-08-18T21:08:51.040Z,98683.05
2018-08-18T21:11:20.618Z,98682.55
2018-08-18T21:13:51.478Z,98682.73
2018-08-18T21:16:21.954Z,98681.59
2018-08-18T21:18:51.761Z,98682.22
2018-08-18T21:21:32.551Z,98689.87
2018-08-18T21:24:02.354Z,98679.88
2018-08-18T21:26:32.074Z,98688.50
2018-08-18T21:29:01.854Z,98687.53
2018-08-18T21:31:33.166Z,98690.52
2018-08-18T21:34:04.631Z,98698.48
2018-08-18T21:36:35.087Z,98696.49
2018-08-18T21:39:08.027Z,98699.30
2018-08-18T21:41:39.583Z,98701.30
2018-08-18T21:44:11.724Z,98698.29
2018-08-18T21:46:41.949Z,98695.13
2018-08-18T21:49:12.653Z,98699.78
2018-08-18T21:51:42.315Z,98700.77
2018-08-18T21:54:12.126Z,98703.91
2018-08-18T21:56:42.938Z,98703.23
2018-08-18T21:59:14.068Z,98700.53
2018-08-18T22:01:44.055Z,98701.17
2018-08-18T22:04:13.721Z,98708.96
2018-08-18T22:06:43.287Z,98704.63
2018-08-18T22:09:30.994Z,98704.31
2018-08-18T22:12:00.547Z,98704.47
2018-08-18T22:14:30.103Z,98704.45
2018-08-18T22:16:59.631Z,98704.42
2018-08-18T22:19:29.928Z,98697.27
2018-08-18T22:21:59.835Z,98697.44
2018-08-18T22:24:29.407Z,98700.25
2018-08-18T22:26:58.971Z,98690.28
2018-08-18T22:29:28.534Z,98697.56
2018-08-18T22:31:58.136Z,98697.41
2018-08-18T22:34:27.896Z,98698.23
2018-08-18T22:37:03.655Z,98692.38
2018-08-18T22:39:33.203Z,98696.53
2018-08-18T22:42:03.296Z,98688.88
2018-08-18T22:44:32.852Z,98696.69
2018-08-18T22:47:04.375Z,98693.33
2018-08-18T22:49:33.959Z,98695.45
2018-08-18T22:52:04.163Z,98693.42
2018-08-18T22:54:33.746Z,98691.91
2018-08-18T22:57:04.634Z,98686.24
2018-08-18T22:59:34.283Z,98686.52
2018-08-18T23:02:04.275Z,98678.72
2018-08-18T23:04:35.864Z,98688.63
2018-08-18T23:07:06.619Z,98682.66
2018-08-18T23:09:36.592Z,98686.45
2018-08-18T23:12:08.042Z,98676.96
2018-08-18T23:14:39.319Z,98678.59
2018-08-18T23:17:11.166Z,98677.89
2018-08-18T23:19:40.746Z,98678.71
2018-08-18T23:22:27.171Z,98675.85
2018-08-18T23:24:56.778Z,98671.98
2018-08-18T23:27:27.671Z,98672.13
2018-08-18T23:29:57.326Z,98673.42
2018-08-18T23:32:27.142Z,98671.74
2018-08-18T23:34:58.122Z,98675.72
2018-08-18T23:37:27.886Z,98670.09
2018-08-18T23:39:57.827Z,98671.33
2018-08-18T23:42:27.835Z,98661.89
2018-08-18T23:44:57.624Z,98659.70
2018-08-18T23:47:27.248Z,98671.33
2018-08-18T23:49:56.917Z,98666.95
2018-08-18T23:52:26.855Z,98664.36
2018-08-18T23:54:56.530Z,98659.81
2018-08-18T23:57:26.224Z,98659.25
2018-08-18T23:59:55.847Z,98658.68
